Lemitar, New Mexico
Current Conditions -  °F | °C
As of 1:15 AM on Monday 24 Nov 2014 (Local Time) from KONM Reporting Station
Clear Clear  
Wind Chill: 27°   Ceiling: Unl
Heat Index: 33°   Visibility: 10mi
Dew Point:   Wind: 7mph
Humidity: 29%   Direction: 360°N
Pressure: 30.12"   Gusts: NA
Location:  34.16°N, 106.91°W
Report Text: KONM 240815Z AUTO 36006KT 10SM CLR 01/M15 A3012 RMK AO2 T00071155
Loading
Personal Weather Stations






























Interactive Weather Map New forecast layout! Learn more

10-Day Weather Forecast

Advertisements
Track Severe Weather on mobile